Takasugawamaru — JJ3828 — position and weather

sailwx.info

Track history (hours):
 
Tides and Currents Weather Stations Pressure Air Temp Water Temp Dewpoint Dewpoint Depression Visibility Wind Speed Wind Dir Waves Ship Positions

Takasugawamaru

Last reported at 2018-Jun-22 10:16 UTC. Time now 2018-Jun-22 20:26 UTC.
Position N 34°31' E 134°28'.

Length 64 m; draft 5.2 m.

Type: Cargo ship. MMSI: 431100208.

Date/timePositionNaut miles runAvg speedWind from/ knotsBaromVisibWave heightAir tempDewpointWater temp
2018-Jun-22 10:16N 34°31' E 134°28'310.8
2018-Jun-22 10:00N 34°29' E 134°30'510.7
2018-Jun-22 09:30N 34°24' E 134°33'510.5
2018-Jun-22 09:00N 34°19' E 134°36'1610.5
2018-Jun-22 07:28N 34°06' E 134°47'610.9
2018-Jun-22 06:53N 34°01' E 134°53'410.8
2018-Jun-22 06:30N 33°58' E 134°56'510.8
2018-Jun-22 06:00N 33°54' E 135°00'248 8.4
2018-Jun-21 00:27N 35°12' E 139°45'4 9.6
2018-Jun-21 00:00N 35°16' E 139°46'510.4
2018-Jun-20 23:30N 35°20' E 139°42'4 7.3
2018-Jun-20 23:00N 35°24' E 139°44'0 0.0
2018-Jun-20 22:28N 35°24' E 139°44'0 0.0
2018-Jun-20 21:58N 35°24' E 139°44'0 0.0
2018-Jun-20 21:28N 35°24' E 139°44'0 0.0
2018-Jun-20 20:58N 35°24' E 139°44'0 0.0
2018-Jun-20 20:28N 35°24' E 139°44'0 0.0
2018-Jun-20 19:55N 35°24' E 139°44'0 0.0
2018-Jun-20 19:28N 35°24' E 139°44'0 0.0
2018-Jun-20 18:58N 35°24' E 139°44'0 0.0
2018-Jun-20 18:28N 35°24' E 139°44'0 0.0
2018-Jun-20 17:58N 35°24' E 139°44'0 0.0
2018-Jun-20 17:28N 35°24' E 139°44'0 0.0
2018-Jun-20 16:58N 35°24' E 139°44'0 0.0
2018-Jun-20 16:28N 35°24' E 139°44'0 0.0
2018-Jun-20 15:58N 35°24' E 139°44'0 0.0
2018-Jun-20 15:28N 35°24' E 139°44'0 0.0
2018-Jun-20 14:58N 35°24' E 139°44'0 0.0
2018-Jun-20 14:28N 35°24' E 139°44'0 0.0
2018-Jun-20 13:58N 35°24' E 139°44'0 0.0
2018-Jun-20 13:28N 35°24' E 139°44'0 0.0
2018-Jun-20 12:52N 35°24' E 139°44'0 0.0
2018-Jun-20 12:28N 35°24' E 139°44'0 0.0
2018-Jun-20 11:58N 35°24' E 139°44'0 0.1
2018-Jun-20 11:28N 35°24' E 139°44'0 0.1
2018-Jun-20 10:59N 35°24' E 139°44'4 7.6
2018-Jun-20 10:30N 35°27' E 139°41'2 4.8
2018-Jun-20 10:01N 35°29' E 139°40'0 0.0
2018-Jun-20 09:30N 35°29' E 139°40'0 0.0
2018-Jun-20 09:01N 35°29' E 139°40'0 0.0
2018-Jun-20 08:28N 35°29' E 139°40'0 0.0
2018-Jun-20 07:58N 35°29' E 139°40'0 0.0
2018-Jun-20 07:28N 35°29' E 139°40'0 0.0
2018-Jun-20 06:58N 35°29' E 139°40'0 0.0
2018-Jun-20 06:30N 35°29' E 139°40'0 0.0
2018-Jun-20 06:00N 35°29' E 139°40'4 7.1
2018-Jun-20 05:30N 35°26' E 139°43'611.6
2018-Jun-20 05:00N 35°24' E 139°49'4 1.0
2018-Jun-20 01:08N 35°22' E 139°53'2 8.2
2018-Jun-20 00:51N 35°23' E 139°50'3 9.3
2018-Jun-20 00:30N 35°23' E 139°47'5 9.1
2018-Jun-20 00:00N 35°18' E 139°45'510.0
2018-Jun-19 23:30N 35°14' E 139°47'6 9.9
2018-Jun-19 22:57N 35°08' E 139°45'  
2018-Jun-16 12:03N 34°31' E 134°30'110.9
2018-Jun-16 11:59N 34°30' E 134°30'510.3
2018-Jun-16 11:30N 34°26' E 134°32'510.9
2018-Jun-16 11:00N 34°21' E 134°35'1811.5
2018-Jun-16 09:27N 34°06' E 134°47'610.9
2018-Jun-16 08:52N 34°01' E 134°53'410.8
2018-Jun-16 08:30N 33°58' E 134°56'510.7
2018-Jun-16 07:59N 33°54' E 135°00'248 9.1
2018-Jun-15 04:44N 35°12' E 139°46'310.1
2018-Jun-15 04:26N 35°15' E 139°46'510.5
2018-Jun-15 04:00N 35°19' E 139°43'510.1
2018-Jun-15 03:31N 35°24' E 139°42'5 9.4
2018-Jun-15 03:00N 35°28' E 139°40'0 1.0
2018-Jun-15 02:31N 35°29' E 139°40'0 0.0
2018-Jun-15 02:00N 35°29' E 139°40'0 0.0
2018-Jun-15 01:30N 35°29' E 139°40'0 0.0
2018-Jun-15 01:01N 35°29' E 139°40'0 0.0
2018-Jun-15 00:31N 35°29' E 139°40'0 0.0
2018-Jun-15 00:00N 35°29' E 139°40'0 0.0
2018-Jun-14 23:30N 35°29' E 139°40'0 0.2
2018-Jun-14 23:01N 35°29' E 139°40'2 3.2
2018-Jun-14 22:31N 35°27' E 139°41'5 9.1
2018-Jun-14 22:00N 35°24' E 139°44'0 0.2
2018-Jun-14 21:29N 35°24' E 139°44'0 0.0
2018-Jun-14 20:59N 35°24' E 139°44'0 0.0
2018-Jun-14 20:29N 35°24' E 139°44'0 0.0
2018-Jun-14 19:59N 35°24' E 139°44'0 0.0
2018-Jun-14 19:29N 35°24' E 139°44'0 0.0
2018-Jun-14 18:58N 35°24' E 139°44'0 0.0
2018-Jun-14 18:29N 35°24' E 139°44'0 0.0
2018-Jun-14 17:58N 35°24' E 139°44'0 0.0
2018-Jun-14 17:28N 35°24' E 139°44'0 0.0
2018-Jun-14 16:58N 35°24' E 139°44'0 0.0
2018-Jun-14 16:28N 35°24' E 139°44'0 0.0
2018-Jun-14 15:58N 35°24' E 139°44'0 0.0
2018-Jun-14 15:28N 35°24' E 139°44'0 0.0
2018-Jun-14 14:58N 35°24' E 139°44'0 0.0
2018-Jun-14 14:28N 35°24' E 139°44'0 0.0
2018-Jun-14 13:58N 35°24' E 139°44'0 0.0
2018-Jun-14 13:28N 35°24' E 139°44'0 0.0
2018-Jun-14 12:58N 35°24' E 139°44'0 0.0
2018-Jun-14 12:28N 35°24' E 139°44'0 0.0
2018-Jun-14 11:58N 35°24' E 139°44'0 0.0
2018-Jun-14 11:25N 35°24' E 139°44'0 0.0
2018-Jun-14 10:58N 35°24' E 139°44'0 0.0
2018-Jun-14 10:28N 35°24' E 139°44'0 0.0
2018-Jun-14 09:58N 35°24' E 139°44'0 0.0
2018-Jun-14 09:29N 35°24' E 139°44'0 0.0
2018-Jun-14 08:58N 35°24' E 139°44'2 5.4
2018-Jun-14 08:31N 35°26' E 139°43'3 6.7
2018-Jun-14 08:00N 35°29' E 139°43'2 4.4
2018-Jun-14 07:29N 35°31' E 139°45'0 0.0
2018-Jun-14 06:58N 35°31' E 139°45'0 0.0
2018-Jun-14 06:30N 35°31' E 139°45'0 0.0
2018-Jun-14 06:00N 35°31' E 139°45'0 0.0
2018-Jun-14 05:30N 35°31' E 139°45'0 0.0
2018-Jun-14 05:00N 35°31' E 139°45'0 0.0
2018-Jun-14 04:30N 35°31' E 139°45'0 0.0
2018-Jun-14 04:00N 35°31' E 139°45'0 0.1
2018-Jun-14 03:29N 35°31' E 139°45'0 0.0
2018-Jun-14 03:00N 35°31' E 139°45'0 0.0
2018-Jun-14 02:31N 35°31' E 139°45'0 0.0
2018-Jun-14 02:01N 35°31' E 139°45'0 0.0
2018-Jun-14 01:30N 35°31' E 139°45'3 5.0
2018-Jun-14 01:00N 35°30' E 139°48'5 9.8
2018-Jun-14 00:30N 35°25' E 139°46'5 9.4
2018-Jun-14 00:00N 35°20' E 139°45'5 8.4
2018-Jun-13 23:26N 35°16' E 139°47'4 8.5
2018-Jun-13 22:59N 35°12' E 139°47'  
Track history (hours):
 
Tides and Currents Weather Stations Pressure Air Temp Water Temp Dewpoint Dewpoint Depression Visibility Wind Speed Wind Dir Waves Ship Positions

Takasugawamaru

Last reported at 2018-Jun-22 10:16 UTC. Time now 2018-Jun-22 20:26 UTC.
Position N 34°31' E 134°28'.

Length 64 m; draft 5.2 m.

Type: Cargo ship. MMSI: 431100208.

Date/timePositionNaut miles runAvg speedWind from/ knotsBaromVisibWave heightAir tempDewpointWater temp
2018-Jun-22 10:16N 34°31' E 134°28'310.8
2018-Jun-22 10:00N 34°29' E 134°30'510.7
2018-Jun-22 09:30N 34°24' E 134°33'510.5
2018-Jun-22 09:00N 34°19' E 134°36'1610.5
2018-Jun-22 07:28N 34°06' E 134°47'610.9
2018-Jun-22 06:53N 34°01' E 134°53'410.8
2018-Jun-22 06:30N 33°58' E 134°56'510.8
2018-Jun-22 06:00N 33°54' E 135°00'248 8.4
2018-Jun-21 00:27N 35°12' E 139°45'4 9.6
2018-Jun-21 00:00N 35°16' E 139°46'510.4
2018-Jun-20 23:30N 35°20' E 139°42'4 7.3
2018-Jun-20 23:00N 35°24' E 139°44'0 0.0
2018-Jun-20 22:28N 35°24' E 139°44'0 0.0
2018-Jun-20 21:58N 35°24' E 139°44'0 0.0
2018-Jun-20 21:28N 35°24' E 139°44'0 0.0
2018-Jun-20 20:58N 35°24' E 139°44'0 0.0
2018-Jun-20 20:28N 35°24' E 139°44'0 0.0
2018-Jun-20 19:55N 35°24' E 139°44'0 0.0
2018-Jun-20 19:28N 35°24' E 139°44'0 0.0
2018-Jun-20 18:58N 35°24' E 139°44'0 0.0
2018-Jun-20 18:28N 35°24' E 139°44'0 0.0
2018-Jun-20 17:58N 35°24' E 139°44'0 0.0
2018-Jun-20 17:28N 35°24' E 139°44'0 0.0
2018-Jun-20 16:58N 35°24' E 139°44'0 0.0
2018-Jun-20 16:28N 35°24' E 139°44'0 0.0
2018-Jun-20 15:58N 35°24' E 139°44'0 0.0
2018-Jun-20 15:28N 35°24' E 139°44'0 0.0
2018-Jun-20 14:58N 35°24' E 139°44'0 0.0
2018-Jun-20 14:28N 35°24' E 139°44'0 0.0
2018-Jun-20 13:58N 35°24' E 139°44'0 0.0
2018-Jun-20 13:28N 35°24' E 139°44'0 0.0
2018-Jun-20 12:52N 35°24' E 139°44'0 0.0
2018-Jun-20 12:28N 35°24' E 139°44'0 0.0
2018-Jun-20 11:58N 35°24' E 139°44'0 0.1
2018-Jun-20 11:28N 35°24' E 139°44'0 0.1
2018-Jun-20 10:59N 35°24' E 139°44'4 7.6
2018-Jun-20 10:30N 35°27' E 139°41'2 4.8
2018-Jun-20 10:01N 35°29' E 139°40'0 0.0
2018-Jun-20 09:30N 35°29' E 139°40'0 0.0
2018-Jun-20 09:01N 35°29' E 139°40'0 0.0
2018-Jun-20 08:28N 35°29' E 139°40'0 0.0
2018-Jun-20 07:58N 35°29' E 139°40'0 0.0
2018-Jun-20 07:28N 35°29' E 139°40'0 0.0
2018-Jun-20 06:58N 35°29' E 139°40'0 0.0
2018-Jun-20 06:30N 35°29' E 139°40'0 0.0
2018-Jun-20 06:00N 35°29' E 139°40'4 7.1
2018-Jun-20 05:30N 35°26' E 139°43'611.6
2018-Jun-20 05:00N 35°24' E 139°49'4 1.0
2018-Jun-20 01:08N 35°22' E 139°53'2 8.2
2018-Jun-20 00:51N 35°23' E 139°50'3 9.3
2018-Jun-20 00:30N 35°23' E 139°47'5 9.1
2018-Jun-20 00:00N 35°18' E 139°45'510.0
2018-Jun-19 23:30N 35°14' E 139°47'6 9.9
2018-Jun-19 22:57N 35°08' E 139°45'  
2018-Jun-16 12:03N 34°31' E 134°30'110.9
2018-Jun-16 11:59N 34°30' E 134°30'510.3
2018-Jun-16 11:30N 34°26' E 134°32'510.9
2018-Jun-16 11:00N 34°21' E 134°35'1811.5
2018-Jun-16 09:27N 34°06' E 134°47'610.9
2018-Jun-16 08:52N 34°01' E 134°53'410.8
2018-Jun-16 08:30N 33°58' E 134°56'510.7
2018-Jun-16 07:59N 33°54' E 135°00'248 9.1
2018-Jun-15 04:44N 35°12' E 139°46'310.1
2018-Jun-15 04:26N 35°15' E 139°46'510.5
2018-Jun-15 04:00N 35°19' E 139°43'510.1
2018-Jun-15 03:31N 35°24' E 139°42'5 9.4
2018-Jun-15 03:00N 35°28' E 139°40'0 1.0
2018-Jun-15 02:31N 35°29' E 139°40'0 0.0
2018-Jun-15 02:00N 35°29' E 139°40'0 0.0
2018-Jun-15 01:30N 35°29' E 139°40'0 0.0
2018-Jun-15 01:01N 35°29' E 139°40'0 0.0
2018-Jun-15 00:31N 35°29' E 139°40'0 0.0
2018-Jun-15 00:00N 35°29' E 139°40'0 0.0
2018-Jun-14 23:30N 35°29' E 139°40'0 0.2
2018-Jun-14 23:01N 35°29' E 139°40'2 3.2
2018-Jun-14 22:31N 35°27' E 139°41'5 9.1
2018-Jun-14 22:00N 35°24' E 139°44'0 0.2
2018-Jun-14 21:29N 35°24' E 139°44'0 0.0
2018-Jun-14 20:59N 35°24' E 139°44'0 0.0
2018-Jun-14 20:29N 35°24' E 139°44'0 0.0
2018-Jun-14 19:59N 35°24' E 139°44'0 0.0
2018-Jun-14 19:29N 35°24' E 139°44'0 0.0
2018-Jun-14 18:58N 35°24' E 139°44'0 0.0
2018-Jun-14 18:29N 35°24' E 139°44'0 0.0
2018-Jun-14 17:58N 35°24' E 139°44'0 0.0
2018-Jun-14 17:28N 35°24' E 139°44'0 0.0
2018-Jun-14 16:58N 35°24' E 139°44'0 0.0
2018-Jun-14 16:28N 35°24' E 139°44'0 0.0
2018-Jun-14 15:58N 35°24' E 139°44'0 0.0
2018-Jun-14 15:28N 35°24' E 139°44'0 0.0
2018-Jun-14 14:58N 35°24' E 139°44'0 0.0
2018-Jun-14 14:28N 35°24' E 139°44'0 0.0
2018-Jun-14 13:58N 35°24' E 139°44'0 0.0
2018-Jun-14 13:28N 35°24' E 139°44'0 0.0
2018-Jun-14 12:58N 35°24' E 139°44'0 0.0
2018-Jun-14 12:28N 35°24' E 139°44'0 0.0
2018-Jun-14 11:58N 35°24' E 139°44'0 0.0
2018-Jun-14 11:25N 35°24' E 139°44'0 0.0
2018-Jun-14 10:58N 35°24' E 139°44'0 0.0
2018-Jun-14 10:28N 35°24' E 139°44'0 0.0
2018-Jun-14 09:58N 35°24' E 139°44'0 0.0
2018-Jun-14 09:29N 35°24' E 139°44'0 0.0
2018-Jun-14 08:58N 35°24' E 139°44'2 5.4
2018-Jun-14 08:31N 35°26' E 139°43'3 6.7
2018-Jun-14 08:00N 35°29' E 139°43'2 4.4
2018-Jun-14 07:29N 35°31' E 139°45'0 0.0
2018-Jun-14 06:58N 35°31' E 139°45'0 0.0
2018-Jun-14 06:30N 35°31' E 139°45'0 0.0
2018-Jun-14 06:00N 35°31' E 139°45'0 0.0
2018-Jun-14 05:30N 35°31' E 139°45'0 0.0
2018-Jun-14 05:00N 35°31' E 139°45'0 0.0
2018-Jun-14 04:30N 35°31' E 139°45'0 0.0
2018-Jun-14 04:00N 35°31' E 139°45'0 0.1
2018-Jun-14 03:29N 35°31' E 139°45'0 0.0
2018-Jun-14 03:00N 35°31' E 139°45'0 0.0
2018-Jun-14 02:31N 35°31' E 139°45'0 0.0
2018-Jun-14 02:01N 35°31' E 139°45'0 0.0
2018-Jun-14 01:30N 35°31' E 139°45'3 5.0
2018-Jun-14 01:00N 35°30' E 139°48'5 9.8
2018-Jun-14 00:30N 35°25' E 139°46'5 9.4
2018-Jun-14 00:00N 35°20' E 139°45'5 8.4
2018-Jun-13 23:26N 35°16' E 139°47'4 8.5
2018-Jun-13 22:59N 35°12' E 139°47'  

Dump ship's entire track history